sensor_id;sensor_type;location;lat;lon;timestamp;P1;durP1;ratioP1;P2;durP2;ratioP2
10311;SDS011;5201;48.776;9.128;2022-08-19T00:01:18;9.93;;;7.35;;
10311;SDS011;5201;48.776;9.128;2022-08-19T00:03:44;14.57;;;8.32;;
10311;SDS011;5201;48.776;9.128;2022-08-19T00:06:09;12.70;;;7.75;;
10311;SDS011;5201;48.776;9.128;2022-08-19T00:08:35;13.85;;;8.20;;
10311;SDS011;5201;48.776;9.128;2022-08-19T00:11:01;11.48;;;7.45;;
10311;SDS011;5201;48.776;9.128;2022-08-19T00:13:27;12.80;;;7.90;;
10311;SDS011;5201;48.776;9.128;2022-08-19T00:15:53;13.63;;;8.38;;
10311;SDS011;5201;48.776;9.128;2022-08-19T00:18:19;11.15;;;7.80;;
10311;SDS011;5201;48.776;9.128;2022-08-19T00:20:45;12.88;;;7.05;;
10311;SDS011;5201;48.776;9.128;2022-08-19T00:23:11;16.67;;;7.90;;
10311;SDS011;5201;48.776;9.128;2022-08-19T00:25:36;10.48;;;7.78;;
10311;SDS011;5201;48.776;9.128;2022-08-19T00:28:02;12.82;;;8.18;;
10311;SDS011;5201;48.776;9.128;2022-08-19T00:30:29;10.50;;;7.20;;
10311;SDS011;5201;48.776;9.128;2022-08-19T00:32:55;12.35;;;7.82;;
10311;SDS011;5201;48.776;9.128;2022-08-19T00:35:21;13.38;;;7.65;;
10311;SDS011;5201;48.776;9.128;2022-08-19T00:37:47;10.20;;;6.88;;
10311;SDS011;5201;48.776;9.128;2022-08-19T00:40:14;11.35;;;8.15;;
10311;SDS011;5201;48.776;9.128;2022-08-19T00:42:41;13.20;;;7.32;;
10311;SDS011;5201;48.776;9.128;2022-08-19T00:45:17;11.20;;;7.93;;
10311;SDS011;5201;48.776;9.128;2022-08-19T00:47:45;12.23;;;7.30;;
10311;SDS011;5201;48.776;9.128;2022-08-19T00:50:12;10.60;;;7.70;;
10311;SDS011;5201;48.776;9.128;2022-08-19T00:52:42;13.27;;;7.47;;
10311;SDS011;5201;48.776;9.128;2022-08-19T00:55:16;11.48;;;7.88;;
10311;SDS011;5201;48.776;9.128;2022-08-19T00:57:49;12.55;;;7.75;;
10311;SDS011;5201;48.776;9.128;2022-08-19T01:00:19;13.02;;;8.23;;
10311;SDS011;5201;48.776;9.128;2022-08-19T01:02:46;10.85;;;7.45;;
10311;SDS011;5201;48.776;9.128;2022-08-19T01:05:16;15.43;;;8.35;;
10311;SDS011;5201;48.776;9.128;2022-08-19T01:07:45;10.07;;;7.50;;
10311;SDS011;5201;48.776;9.128;2022-08-19T01:10:14;11.35;;;7.63;;
10311;SDS011;5201;48.776;9.128;2022-08-19T01:12:44;11.55;;;7.97;;
10311;SDS011;5201;48.776;9.128;2022-08-19T01:15:12;11.18;;;7.93;;
10311;SDS011;5201;48.776;9.128;2022-08-19T01:17:41;13.73;;;8.07;;
10311;SDS011;5201;48.776;9.128;2022-08-19T01:20:12;11.43;;;8.18;;
10311;SDS011;5201;48.776;9.128;2022-08-19T01:22:43;10.43;;;7.63;;
10311;SDS011;5201;48.776;9.128;2022-08-19T01:25:21;14.30;;;8.50;;
10311;SDS011;5201;48.776;9.128;2022-08-19T01:27:51;10.88;;;7.57;;
10311;SDS011;5201;48.776;9.128;2022-08-19T01:30:19;13.20;;;8.48;;
10311;SDS011;5201;48.776;9.128;2022-08-19T01:32:47;13.32;;;8.32;;
10311;SDS011;5201;48.776;9.128;2022-08-19T01:35:14;12.07;;;8.25;;
10311;SDS011;5201;48.776;9.128;2022-08-19T01:37:50;11.52;;;7.97;;
10311;SDS011;5201;48.776;9.128;2022-08-19T01:40:25;13.40;;;8.10;;
10311;SDS011;5201;48.776;9.128;2022-08-19T01:42:54;13.30;;;8.90;;
10311;SDS011;5201;48.776;9.128;2022-08-19T01:45:20;12.45;;;8.50;;
10311;SDS011;5201;48.776;9.128;2022-08-19T01:47:48;12.30;;;8.57;;
10311;SDS011;5201;48.776;9.128;2022-08-19T01:50:14;13.52;;;8.82;;
10311;SDS011;5201;48.776;9.128;2022-08-19T01:52:40;12.68;;;8.75;;
10311;SDS011;5201;48.776;9.128;2022-08-19T01:55:07;11.93;;;8.63;;
10311;SDS011;5201;48.776;9.128;2022-08-19T01:57:35;11.27;;;8.25;;
10311;SDS011;5201;48.776;9.128;2022-08-19T02:00:03;16.50;;;9.13;;
10311;SDS011;5201;48.776;9.128;2022-08-19T02:02:31;13.05;;;8.50;;
10311;SDS011;5201;48.776;9.128;2022-08-19T02:04:57;18.30;;;8.70;;
10311;SDS011;5201;48.776;9.128;2022-08-19T02:07:24;12.63;;;9.15;;
10311;SDS011;5201;48.776;9.128;2022-08-19T02:09:50;14.80;;;8.23;;
10311;SDS011;5201;48.776;9.128;2022-08-19T02:12:15;13.35;;;8.45;;
10311;SDS011;5201;48.776;9.128;2022-08-19T02:14:41;15.88;;;8.95;;
10311;SDS011;5201;48.776;9.128;2022-08-19T02:17:07;13.30;;;9.73;;
10311;SDS011;5201;48.776;9.128;2022-08-19T02:19:33;14.75;;;9.52;;
10311;SDS011;5201;48.776;9.128;2022-08-19T02:21:59;15.00;;;9.98;;
10311;SDS011;5201;48.776;9.128;2022-08-19T02:24:26;14.73;;;9.50;;
10311;SDS011;5201;48.776;9.128;2022-08-19T02:26:53;16.83;;;9.10;;
10311;SDS011;5201;48.776;9.128;2022-08-19T02:29:19;16.83;;;10.23;;
10311;SDS011;5201;48.776;9.128;2022-08-19T02:31:45;13.57;;;9.40;;
10311;SDS011;5201;48.776;9.128;2022-08-19T02:34:11;13.07;;;8.90;;
10311;SDS011;5201;48.776;9.128;2022-08-19T02:36:37;14.85;;;9.50;;
10311;SDS011;5201;48.776;9.128;2022-08-19T02:39:02;12.48;;;9.23;;
10311;SDS011;5201;48.776;9.128;2022-08-19T02:41:31;17.58;;;10.20;;
10311;SDS011;5201;48.776;9.128;2022-08-19T02:43:59;14.23;;;9.55;;
10311;SDS011;5201;48.776;9.128;2022-08-19T02:46:30;15.30;;;10.10;;
10311;SDS011;5201;48.776;9.128;2022-08-19T02:48:58;16.52;;;10.23;;
10311;SDS011;5201;48.776;9.128;2022-08-19T02:51:29;16.45;;;10.27;;
10311;SDS011;5201;48.776;9.128;2022-08-19T02:53:59;15.65;;;10.05;;
10311;SDS011;5201;48.776;9.128;2022-08-19T02:56:26;17.08;;;10.50;;
10311;SDS011;5201;48.776;9.128;2022-08-19T02:58:52;19.38;;;11.05;;
10311;SDS011;5201;48.776;9.128;2022-08-19T03:01:20;14.38;;;9.90;;
10311;SDS011;5201;48.776;9.128;2022-08-19T03:03:50;18.60;;;10.50;;
10311;SDS011;5201;48.776;9.128;2022-08-19T03:06:17;19.50;;;11.48;;
10311;SDS011;5201;48.776;9.128;2022-08-19T03:08:44;14.10;;;10.05;;
10311;SDS011;5201;48.776;9.128;2022-08-19T03:11:24;16.88;;;11.43;;
10311;SDS011;5201;48.776;9.128;2022-08-19T03:13:52;18.02;;;11.30;;
10311;SDS011;5201;48.776;9.128;2022-08-19T03:16:19;16.58;;;11.02;;
10311;SDS011;5201;48.776;9.128;2022-08-19T03:18:46;16.02;;;11.10;;
10311;SDS011;5201;48.776;9.128;2022-08-19T03:21:16;20.48;;;11.30;;
10311;SDS011;5201;48.776;9.128;2022-08-19T03:23:47;17.80;;;10.57;;
10311;SDS011;5201;48.776;9.128;2022-08-19T03:26:13;21.58;;;11.27;;
10311;SDS011;5201;48.776;9.128;2022-08-19T03:28:42;20.05;;;12.18;;
10311;SDS011;5201;48.776;9.128;2022-08-19T03:31:13;17.40;;;11.07;;
10311;SDS011;5201;48.776;9.128;2022-08-19T03:33:39;17.08;;;10.77;;
10311;SDS011;5201;48.776;9.128;2022-08-19T03:38:38;20.73;;;11.48;;
10311;SDS011;5201;48.776;9.128;2022-08-19T03:41:09;18.92;;;11.48;;
10311;SDS011;5201;48.776;9.128;2022-08-19T03:43:38;18.00;;;12.13;;
10311;SDS011;5201;48.776;9.128;2022-08-19T03:46:15;21.83;;;12.13;;
10311;SDS011;5201;48.776;9.128;2022-08-19T03:48:45;20.67;;;12.55;;
10311;SDS011;5201;48.776;9.128;2022-08-19T03:54:01;21.48;;;13.07;;
10311;SDS011;5201;48.776;9.128;2022-08-19T03:56:28;19.85;;;12.65;;
10311;SDS011;5201;48.776;9.128;2022-08-19T03:58:55;20.63;;;13.07;;
10311;SDS011;5201;48.776;9.128;2022-08-19T04:01:22;21.98;;;12.52;;
10311;SDS011;5201;48.776;9.128;2022-08-19T04:03:51;19.90;;;13.25;;
10311;SDS011;5201;48.776;9.128;2022-08-19T04:06:19;20.67;;;13.43;;
10311;SDS011;5201;48.776;9.128;2022-08-19T04:08:47;24.73;;;13.38;;
10311;SDS011;5201;48.776;9.128;2022-08-19T04:11:16;22.60;;;13.15;;
10311;SDS011;5201;48.776;9.128;2022-08-19T04:13:46;22.95;;;13.25;;
10311;SDS011;5201;48.776;9.128;2022-08-19T04:16:13;22.48;;;13.10;;
10311;SDS011;5201;48.776;9.128;2022-08-19T04:18:39;23.80;;;13.55;;
10311;SDS011;5201;48.776;9.128;2022-08-19T04:21:06;21.70;;;13.77;;
10311;SDS011;5201;48.776;9.128;2022-08-19T04:23:32;22.33;;;13.32;;
10311;SDS011;5201;48.776;9.128;2022-08-19T04:26:00;25.05;;;14.85;;
10311;SDS011;5201;48.776;9.128;2022-08-19T04:28:27;24.35;;;14.23;;
10311;SDS011;5201;48.776;9.128;2022-08-19T04:30:54;23.20;;;14.80;;
10311;SDS011;5201;48.776;9.128;2022-08-19T04:33:22;18.77;;;12.98;;
10311;SDS011;5201;48.776;9.128;2022-08-19T04:35:50;22.00;;;13.90;;
10311;SDS011;5201;48.776;9.128;2022-08-19T04:38:18;22.73;;;14.38;;
10311;SDS011;5201;48.776;9.128;2022-08-19T04:40:46;21.98;;;14.60;;
10311;SDS011;5201;48.776;9.128;2022-08-19T04:43:32;23.05;;;13.38;;
10311;SDS011;5201;48.776;9.128;2022-08-19T04:46:06;27.10;;;13.95;;
10311;SDS011;5201;48.776;9.128;2022-08-19T04:48:37;21.92;;;12.93;;
10311;SDS011;5201;48.776;9.128;2022-08-19T04:51:09;23.30;;;15.25;;
10311;SDS011;5201;48.776;9.128;2022-08-19T04:53:38;21.52;;;13.68;;
10311;SDS011;5201;48.776;9.128;2022-08-19T04:56:12;21.25;;;14.23;;
10311;SDS011;5201;48.776;9.128;2022-08-19T04:58:40;21.13;;;13.95;;
10311;SDS011;5201;48.776;9.128;2022-08-19T05:01:08;23.90;;;13.30;;
10311;SDS011;5201;48.776;9.128;2022-08-19T05:03:38;24.27;;;14.02;;
10311;SDS011;5201;48.776;9.128;2022-08-19T05:06:07;23.20;;;14.25;;
10311;SDS011;5201;48.776;9.128;2022-08-19T05:08:36;24.63;;;12.95;;
10311;SDS011;5201;48.776;9.128;2022-08-19T05:11:09;20.08;;;12.82;;
10311;SDS011;5201;48.776;9.128;2022-08-19T05:13:36;25.45;;;13.77;;
10311;SDS011;5201;48.776;9.128;2022-08-19T05:16:03;22.87;;;13.80;;
10311;SDS011;5201;48.776;9.128;2022-08-19T05:18:29;24.40;;;14.40;;
10311;SDS011;5201;48.776;9.128;2022-08-19T05:21:14;22.08;;;12.63;;
10311;SDS011;5201;48.776;9.128;2022-08-19T05:24:00;22.77;;;12.82;;
10311;SDS011;5201;48.776;9.128;2022-08-19T05:26:27;21.73;;;12.88;;
10311;SDS011;5201;48.776;9.128;2022-08-19T05:28:53;20.77;;;13.10;;
10311;SDS011;5201;48.776;9.128;2022-08-19T05:31:19;20.25;;;12.88;;
10311;SDS011;5201;48.776;9.128;2022-08-19T05:33:45;20.10;;;13.18;;
10311;SDS011;5201;48.776;9.128;2022-08-19T05:36:11;21.73;;;13.38;;
10311;SDS011;5201;48.776;9.128;2022-08-19T05:38:37;23.02;;;12.70;;
10311;SDS011;5201;48.776;9.128;2022-08-19T05:41:07;23.70;;;13.80;;
10311;SDS011;5201;48.776;9.128;2022-08-19T05:43:37;21.25;;;13.70;;
10311;SDS011;5201;48.776;9.128;2022-08-19T05:46:06;17.20;;;11.70;;
10311;SDS011;5201;48.776;9.128;2022-08-19T05:48:33;18.60;;;12.00;;
10311;SDS011;5201;48.776;9.128;2022-08-19T05:51:06;19.08;;;12.60;;
10311;SDS011;5201;48.776;9.128;2022-08-19T05:53:33;20.77;;;12.73;;
10311;SDS011;5201;48.776;9.128;2022-08-19T05:56:06;22.60;;;12.68;;
10311;SDS011;5201;48.776;9.128;2022-08-19T05:58:33;19.55;;;11.80;;
10311;SDS011;5201;48.776;9.128;2022-08-19T06:00:59;22.83;;;13.35;;
10311;SDS011;5201;48.776;9.128;2022-08-19T06:03:33;20.00;;;11.60;;
10311;SDS011;5201;48.776;9.128;2022-08-19T06:06:00;19.67;;;11.27;;
10311;SDS011;5201;48.776;9.128;2022-08-19T06:08:27;22.88;;;12.50;;
10311;SDS011;5201;48.776;9.128;2022-08-19T06:10:53;21.80;;;13.15;;
10311;SDS011;5201;48.776;9.128;2022-08-19T06:13:20;18.70;;;12.10;;
10311;SDS011;5201;48.776;9.128;2022-08-19T06:15:47;19.95;;;13.02;;
10311;SDS011;5201;48.776;9.128;2022-08-19T06:18:13;20.60;;;11.90;;
10311;SDS011;5201;48.776;9.128;2022-08-19T06:20:40;21.40;;;13.18;;
10311;SDS011;5201;48.776;9.128;2022-08-19T06:23:06;17.90;;;12.40;;
10311;SDS011;5201;48.776;9.128;2022-08-19T06:25:33;18.15;;;12.25;;
10311;SDS011;5201;48.776;9.128;2022-08-19T06:27:58;22.17;;;13.13;;
10311;SDS011;5201;48.776;9.128;2022-08-19T06:30:24;17.58;;;12.50;;
10311;SDS011;5201;48.776;9.128;2022-08-19T06:32:50;21.05;;;11.93;;
10311;SDS011;5201;48.776;9.128;2022-08-19T06:35:15;18.77;;;12.98;;
10311;SDS011;5201;48.776;9.128;2022-08-19T06:37:41;17.02;;;11.85;;
10311;SDS011;5201;48.776;9.128;2022-08-19T06:40:07;19.23;;;12.18;;
10311;SDS011;5201;48.776;9.128;2022-08-19T06:42:35;21.55;;;12.63;;
10311;SDS011;5201;48.776;9.128;2022-08-19T06:45:03;22.23;;;12.23;;
10311;SDS011;5201;48.776;9.128;2022-08-19T06:47:31;22.27;;;13.32;;
10311;SDS011;5201;48.776;9.128;2022-08-19T06:49:59;19.55;;;13.20;;
10311;SDS011;5201;48.776;9.128;2022-08-19T06:52:28;18.63;;;11.77;;
10311;SDS011;5201;48.776;9.128;2022-08-19T06:54:55;20.05;;;12.70;;
10311;SDS011;5201;48.776;9.128;2022-08-19T06:57:21;17.80;;;12.25;;
10311;SDS011;5201;48.776;9.128;2022-08-19T06:59:47;20.60;;;13.27;;
10311;SDS011;5201;48.776;9.128;2022-08-19T07:02:13;23.17;;;13.48;;
10311;SDS011;5201;48.776;9.128;2022-08-19T07:04:38;21.23;;;13.35;;
10311;SDS011;5201;48.776;9.128;2022-08-19T07:07:05;19.75;;;13.05;;
10311;SDS011;5201;48.776;9.128;2022-08-19T07:09:38;22.67;;;14.35;;
10311;SDS011;5201;48.776;9.128;2022-08-19T07:12:06;19.35;;;13.25;;
10311;SDS011;5201;48.776;9.128;2022-08-19T07:14:34;23.73;;;14.52;;
10311;SDS011;5201;48.776;9.128;2022-08-19T07:17:02;22.58;;;13.20;;
10311;SDS011;5201;48.776;9.128;2022-08-19T07:19:29;17.83;;;12.68;;
10311;SDS011;5201;48.776;9.128;2022-08-19T07:21:56;19.27;;;13.32;;
10311;SDS011;5201;48.776;9.128;2022-08-19T07:24:25;23.92;;;13.45;;
10311;SDS011;5201;48.776;9.128;2022-08-19T07:26:53;22.08;;;13.30;;
10311;SDS011;5201;48.776;9.128;2022-08-19T07:29:22;21.65;;;13.38;;
10311;SDS011;5201;48.776;9.128;2022-08-19T07:31:49;24.08;;;13.63;;
10311;SDS011;5201;48.776;9.128;2022-08-19T07:34:16;18.88;;;12.93;;
10311;SDS011;5201;48.776;9.128;2022-08-19T07:36:42;18.85;;;12.45;;
10311;SDS011;5201;48.776;9.128;2022-08-19T07:39:11;19.13;;;13.55;;
10311;SDS011;5201;48.776;9.128;2022-08-19T07:42:08;21.48;;;12.38;;
10311;SDS011;5201;48.776;9.128;2022-08-19T07:44:35;18.55;;;11.70;;
10311;SDS011;5201;48.776;9.128;2022-08-19T07:47:01;18.33;;;12.18;;
10311;SDS011;5201;48.776;9.128;2022-08-19T07:49:27;17.67;;;11.57;;
10311;SDS011;5201;48.776;9.128;2022-08-19T07:51:54;18.08;;;11.38;;
10311;SDS011;5201;48.776;9.128;2022-08-19T07:54:21;16.92;;;11.60;;
10311;SDS011;5201;48.776;9.128;2022-08-19T07:56:48;19.98;;;12.50;;
10311;SDS011;5201;48.776;9.128;2022-08-19T07:59:15;20.25;;;11.73;;
10311;SDS011;5201;48.776;9.128;2022-08-19T08:01:42;19.90;;;12.07;;
10311;SDS011;5201;48.776;9.128;2022-08-19T08:04:09;17.75;;;12.48;;
10311;SDS011;5201;48.776;9.128;2022-08-19T08:06:54;19.02;;;11.30;;
10311;SDS011;5201;48.776;9.128;2022-08-19T08:09:39;16.55;;;11.30;;
10311;SDS011;5201;48.776;9.128;2022-08-19T08:12:08;16.17;;;12.10;;
10311;SDS011;5201;48.776;9.128;2022-08-19T08:14:45;17.80;;;12.13;;
10311;SDS011;5201;48.776;9.128;2022-08-19T08:17:15;18.33;;;11.85;;
10311;SDS011;5201;48.776;9.128;2022-08-19T08:19:43;19.88;;;12.05;;
10311;SDS011;5201;48.776;9.128;2022-08-19T08:22:10;19.73;;;12.23;;
10311;SDS011;5201;48.776;9.128;2022-08-19T08:25:12;17.30;;;11.15;;
10311;SDS011;5201;48.776;9.128;2022-08-19T08:27:41;20.33;;;11.43;;
10311;SDS011;5201;48.776;9.128;2022-08-19T08:30:13;15.27;;;10.75;;
10311;SDS011;5201;48.776;9.128;2022-08-19T08:32:41;16.65;;;11.05;;
10311;SDS011;5201;48.776;9.128;2022-08-19T08:35:08;18.23;;;11.65;;
10311;SDS011;5201;48.776;9.128;2022-08-19T08:37:36;17.02;;;10.30;;
10311;SDS011;5201;48.776;9.128;2022-08-19T08:40:03;18.30;;;11.48;;
10311;SDS011;5201;48.776;9.128;2022-08-19T08:42:34;17.00;;;12.25;;
10311;SDS011;5201;48.776;9.128;2022-08-19T08:45:10;17.70;;;11.65;;
10311;SDS011;5201;48.776;9.128;2022-08-19T08:47:41;19.90;;;11.18;;
10311;SDS011;5201;48.776;9.128;2022-08-19T08:50:34;16.88;;;10.30;;
10311;SDS011;5201;48.776;9.128;2022-08-19T08:53:05;18.02;;;10.95;;
10311;SDS011;5201;48.776;9.128;2022-08-19T08:55:33;16.50;;;11.38;;
10311;SDS011;5201;48.776;9.128;2022-08-19T08:58:04;18.70;;;11.35;;
10311;SDS011;5201;48.776;9.128;2022-08-19T09:00:46;20.67;;;11.60;;
10311;SDS011;5201;48.776;9.128;2022-08-19T09:03:18;19.10;;;11.70;;
10311;SDS011;5201;48.776;9.128;2022-08-19T09:08:30;15.13;;;11.10;;
10311;SDS011;5201;48.776;9.128;2022-08-19T09:11:08;15.32;;;11.13;;
10311;SDS011;5201;48.776;9.128;2022-08-19T09:13:42;16.63;;;9.90;;
10311;SDS011;5201;48.776;9.128;2022-08-19T09:16:21;15.70;;;10.15;;
10311;SDS011;5201;48.776;9.128;2022-08-19T09:18:52;18.63;;;10.95;;
10311;SDS011;5201;48.776;9.128;2022-08-19T09:21:25;15.98;;;10.52;;
10311;SDS011;5201;48.776;9.128;2022-08-19T09:23:52;19.20;;;10.65;;
10311;SDS011;5201;48.776;9.128;2022-08-19T09:26:19;16.05;;;10.43;;
10311;SDS011;5201;48.776;9.128;2022-08-19T09:28:46;16.30;;;10.88;;
10311;SDS011;5201;48.776;9.128;2022-08-19T09:31:14;18.05;;;10.18;;
10311;SDS011;5201;48.776;9.128;2022-08-19T09:33:44;18.08;;;10.18;;
10311;SDS011;5201;48.776;9.128;2022-08-19T09:36:13;13.55;;;9.80;;
10311;SDS011;5201;48.776;9.128;2022-08-19T09:38:40;21.25;;;10.27;;
10311;SDS011;5201;48.776;9.128;2022-08-19T09:41:08;15.35;;;9.95;;
10311;SDS011;5201;48.776;9.128;2022-08-19T09:43:38;12.95;;;9.57;;
10311;SDS011;5201;48.776;9.128;2022-08-19T09:46:06;16.08;;;8.93;;
10311;SDS011;5201;48.776;9.128;2022-08-19T09:48:34;14.10;;;9.57;;
10311;SDS011;5201;48.776;9.128;2022-08-19T09:51:04;11.20;;;8.38;;
10311;SDS011;5201;48.776;9.128;2022-08-19T09:53:31;11.80;;;8.98;;
10311;SDS011;5201;48.776;9.128;2022-08-19T09:55:57;14.65;;;9.05;;
10311;SDS011;5201;48.776;9.128;2022-08-19T09:58:23;13.50;;;8.25;;
10311;SDS011;5201;48.776;9.128;2022-08-19T10:00:52;12.68;;;9.05;;
10311;SDS011;5201;48.776;9.128;2022-08-19T10:03:22;17.48;;;8.98;;
10311;SDS011;5201;48.776;9.128;2022-08-19T10:05:48;15.98;;;7.90;;
10311;SDS011;5201;48.776;9.128;2022-08-19T10:08:18;14.88;;;8.02;;
10311;SDS011;5201;48.776;9.128;2022-08-19T10:10:46;9.68;;;7.18;;
10311;SDS011;5201;48.776;9.128;2022-08-19T10:13:15;11.75;;;8.07;;
10311;SDS011;5201;48.776;9.128;2022-08-19T10:15:43;11.88;;;8.30;;
10311;SDS011;5201;48.776;9.128;2022-08-19T10:18:09;10.75;;;7.95;;
10311;SDS011;5201;48.776;9.128;2022-08-19T10:20:36;11.05;;;7.35;;
10311;SDS011;5201;48.776;9.128;2022-08-19T10:23:02;15.90;;;8.45;;
10311;SDS011;5201;48.776;9.128;2022-08-19T10:25:28;11.75;;;6.90;;
10311;SDS011;5201;48.776;9.128;2022-08-19T10:27:54;12.65;;;8.07;;
10311;SDS011;5201;48.776;9.128;2022-08-19T10:30:20;10.48;;;7.53;;
10311;SDS011;5201;48.776;9.128;2022-08-19T10:32:46;14.73;;;7.88;;
10311;SDS011;5201;48.776;9.128;2022-08-19T10:35:12;10.85;;;7.63;;
10311;SDS011;5201;48.776;9.128;2022-08-19T10:37:39;12.80;;;7.97;;
10311;SDS011;5201;48.776;9.128;2022-08-19T10:40:06;13.73;;;9.35;;
10311;SDS011;5201;48.776;9.128;2022-08-19T10:42:34;7.97;;;6.47;;
10311;SDS011;5201;48.776;9.128;2022-08-19T10:45:00;13.43;;;7.10;;
10311;SDS011;5201;48.776;9.128;2022-08-19T10:47:27;9.18;;;6.55;;
10311;SDS011;5201;48.776;9.128;2022-08-19T10:49:53;9.60;;;6.97;;
10311;SDS011;5201;48.776;9.128;2022-08-19T10:52:43;9.68;;;6.95;;
10311;SDS011;5201;48.776;9.128;2022-08-19T10:55:11;9.27;;;5.80;;
10311;SDS011;5201;48.776;9.128;2022-08-19T10:57:55;12.10;;;6.35;;
10311;SDS011;5201;48.776;9.128;2022-08-19T11:00:22;10.82;;;6.35;;
10311;SDS011;5201;48.776;9.128;2022-08-19T11:02:49;8.00;;;5.45;;
10311;SDS011;5201;48.776;9.128;2022-08-19T11:05:15;8.68;;;6.32;;
10311;SDS011;5201;48.776;9.128;2022-08-19T11:07:42;8.68;;;5.95;;
10311;SDS011;5201;48.776;9.128;2022-08-19T11:10:10;7.78;;;5.45;;
10311;SDS011;5201;48.776;9.128;2022-08-19T11:12:38;12.43;;;6.13;;
10311;SDS011;5201;48.776;9.128;2022-08-19T11:15:08;8.13;;;5.57;;
10311;SDS011;5201;48.776;9.128;2022-08-19T11:17:36;7.47;;;5.93;;
10311;SDS011;5201;48.776;9.128;2022-08-19T11:20:05;10.18;;;6.07;;
10311;SDS011;5201;48.776;9.128;2022-08-19T11:22:31;12.73;;;6.00;;
10311;SDS011;5201;48.776;9.128;2022-08-19T11:24:57;8.30;;;6.07;;
10311;SDS011;5201;48.776;9.128;2022-08-19T11:27:23;7.07;;;6.10;;
10311;SDS011;5201;48.776;9.128;2022-08-19T11:29:48;8.73;;;5.70;;
10311;SDS011;5201;48.776;9.128;2022-08-19T11:32:14;7.82;;;5.32;;
10311;SDS011;5201;48.776;9.128;2022-08-19T11:34:40;8.35;;;5.85;;
10311;SDS011;5201;48.776;9.128;2022-08-19T11:37:06;8.02;;;5.68;;
10311;SDS011;5201;48.776;9.128;2022-08-19T11:39:34;11.10;;;5.85;;
10311;SDS011;5201;48.776;9.128;2022-08-19T11:42:02;7.40;;;5.57;;
10311;SDS011;5201;48.776;9.128;2022-08-19T11:44:49;10.18;;;5.90;;
10311;SDS011;5201;48.776;9.128;2022-08-19T11:47:15;6.88;;;5.15;;
10311;SDS011;5201;48.776;9.128;2022-08-19T11:49:41;7.75;;;4.95;;
10311;SDS011;5201;48.776;9.128;2022-08-19T11:52:07;5.15;;;4.53;;
10311;SDS011;5201;48.776;9.128;2022-08-19T11:54:34;8.38;;;5.22;;
10311;SDS011;5201;48.776;9.128;2022-08-19T11:56:59;10.63;;;4.55;;
10311;SDS011;5201;48.776;9.128;2022-08-19T11:59:27;8.68;;;4.97;;
10311;SDS011;5201;48.776;9.128;2022-08-19T12:01:54;6.10;;;5.22;;
10311;SDS011;5201;48.776;9.128;2022-08-19T12:04:20;7.93;;;4.65;;
10311;SDS011;5201;48.776;9.128;2022-08-19T12:06:46;5.13;;;4.50;;
10311;SDS011;5201;48.776;9.128;2022-08-19T12:09:12;6.05;;;4.97;;
10311;SDS011;5201;48.776;9.128;2022-08-19T12:11:39;5.93;;;4.70;;
10311;SDS011;5201;48.776;9.128;2022-08-19T12:14:05;7.32;;;4.32;;
10311;SDS011;5201;48.776;9.128;2022-08-19T12:16:33;7.13;;;4.75;;
10311;SDS011;5201;48.776;9.128;2022-08-19T12:18:59;8.05;;;5.25;;
10311;SDS011;5201;48.776;9.128;2022-08-19T12:21:29;4.80;;;4.30;;
10311;SDS011;5201;48.776;9.128;2022-08-19T12:23:57;6.10;;;4.13;;
10311;SDS011;5201;48.776;9.128;2022-08-19T12:26:25;8.50;;;5.45;;
10311;SDS011;5201;48.776;9.128;2022-08-19T12:28:52;7.03;;;4.97;;
10311;SDS011;5201;48.776;9.128;2022-08-19T12:31:18;6.78;;;4.95;;
10311;SDS011;5201;48.776;9.128;2022-08-19T12:33:45;8.88;;;4.50;;
10311;SDS011;5201;48.776;9.128;2022-08-19T12:36:12;5.60;;;4.60;;
10311;SDS011;5201;48.776;9.128;2022-08-19T12:38:40;8.25;;;4.95;;
10311;SDS011;5201;48.776;9.128;2022-08-19T12:41:06;6.25;;;4.90;;
10311;SDS011;5201;48.776;9.128;2022-08-19T12:43:34;7.35;;;4.20;;
10311;SDS011;5201;48.776;9.128;2022-08-19T12:46:02;5.97;;;4.38;;
10311;SDS011;5201;48.776;9.128;2022-08-19T12:48:29;8.65;;;4.35;;
10311;SDS011;5201;48.776;9.128;2022-08-19T12:50:55;7.00;;;4.45;;
10311;SDS011;5201;48.776;9.128;2022-08-19T12:53:21;5.68;;;4.45;;
10311;SDS011;5201;48.776;9.128;2022-08-19T12:55:47;5.43;;;4.07;;
10311;SDS011;5201;48.776;9.128;2022-08-19T12:58:12;6.90;;;4.47;;
10311;SDS011;5201;48.776;9.128;2022-08-19T13:00:38;8.55;;;4.40;;
10311;SDS011;5201;48.776;9.128;2022-08-19T13:03:04;8.10;;;4.22;;
10311;SDS011;5201;48.776;9.128;2022-08-19T13:05:30;5.65;;;3.35;;
10311;SDS011;5201;48.776;9.128;2022-08-19T13:07:58;5.85;;;3.97;;
10311;SDS011;5201;48.776;9.128;2022-08-19T13:10:29;4.45;;;3.47;;
10311;SDS011;5201;48.776;9.128;2022-08-19T13:13:00;7.97;;;3.97;;
10311;SDS011;5201;48.776;9.128;2022-08-19T13:15:28;6.57;;;4.38;;
10311;SDS011;5201;48.776;9.128;2022-08-19T13:17:56;5.60;;;4.43;;
10311;SDS011;5201;48.776;9.128;2022-08-19T13:20:22;5.45;;;4.00;;
10311;SDS011;5201;48.776;9.128;2022-08-19T13:22:49;9.13;;;5.35;;
10311;SDS011;5201;48.776;9.128;2022-08-19T13:25:15;10.38;;;6.03;;
10311;SDS011;5201;48.776;9.128;2022-08-19T13:27:44;10.02;;;6.10;;
10311;SDS011;5201;48.776;9.128;2022-08-19T13:30:11;11.38;;;5.88;;
10311;SDS011;5201;48.776;9.128;2022-08-19T13:32:57;8.98;;;5.80;;
10311;SDS011;5201;48.776;9.128;2022-08-19T13:35:48;9.95;;;5.90;;
10311;SDS011;5201;48.776;9.128;2022-08-19T13:38:19;7.07;;;5.43;;
10311;SDS011;5201;48.776;9.128;2022-08-19T13:40:45;11.40;;;6.32;;
10311;SDS011;5201;48.776;9.128;2022-08-19T13:43:12;12.30;;;6.40;;
10311;SDS011;5201;48.776;9.128;2022-08-19T13:45:39;10.63;;;6.80;;
10311;SDS011;5201;48.776;9.128;2022-08-19T13:48:05;8.40;;;5.68;;
10311;SDS011;5201;48.776;9.128;2022-08-19T13:50:33;13.65;;;6.22;;
10311;SDS011;5201;48.776;9.128;2022-08-19T13:53:06;11.75;;;8.30;;
10311;SDS011;5201;48.776;9.128;2022-08-19T13:55:33;17.60;;;8.23;;
10311;SDS011;5201;48.776;9.128;2022-08-19T13:58:00;17.77;;;9.10;;
10311;SDS011;5201;48.776;9.128;2022-08-19T14:00:30;14.18;;;9.77;;
10311;SDS011;5201;48.776;9.128;2022-08-19T14:02:57;16.88;;;8.82;;
10311;SDS011;5201;48.776;9.128;2022-08-19T14:05:24;13.25;;;9.43;;
10311;SDS011;5201;48.776;9.128;2022-08-19T14:07:51;16.67;;;10.98;;
10311;SDS011;5201;48.776;9.128;2022-08-19T14:10:17;14.50;;;10.27;;
10311;SDS011;5201;48.776;9.128;2022-08-19T14:12:44;14.40;;;10.57;;
10311;SDS011;5201;48.776;9.128;2022-08-19T14:15:11;17.92;;;11.57;;
10311;SDS011;5201;48.776;9.128;2022-08-19T14:17:42;19.40;;;12.68;;
10311;SDS011;5201;48.776;9.128;2022-08-19T14:20:09;18.05;;;11.20;;
10311;SDS011;5201;48.776;9.128;2022-08-19T14:22:37;15.00;;;10.85;;
10311;SDS011;5201;48.776;9.128;2022-08-19T14:25:05;17.58;;;10.73;;
10311;SDS011;5201;48.776;9.128;2022-08-19T14:27:36;16.55;;;10.55;;
10311;SDS011;5201;48.776;9.128;2022-08-19T14:30:04;14.88;;;10.63;;
10311;SDS011;5201;48.776;9.128;2022-08-19T14:32:33;16.35;;;11.00;;
10311;SDS011;5201;48.776;9.128;2022-08-19T14:34:59;14.60;;;10.15;;
10311;SDS011;5201;48.776;9.128;2022-08-19T14:37:26;15.63;;;10.88;;
10311;SDS011;5201;48.776;9.128;2022-08-19T14:39:51;15.38;;;10.73;;
10311;SDS011;5201;48.776;9.128;2022-08-19T14:42:18;15.32;;;10.52;;
10311;SDS011;5201;48.776;9.128;2022-08-19T14:44:44;18.92;;;11.20;;
10311;SDS011;5201;48.776;9.128;2022-08-19T14:47:10;12.23;;;8.85;;
10311;SDS011;5201;48.776;9.128;2022-08-19T14:49:35;18.42;;;9.43;;
10311;SDS011;5201;48.776;9.128;2022-08-19T14:52:01;16.88;;;9.10;;
10311;SDS011;5201;48.776;9.128;2022-08-19T14:54:28;12.60;;;9.20;;
10311;SDS011;5201;48.776;9.128;2022-08-19T14:56:54;14.20;;;9.80;;
10311;SDS011;5201;48.776;9.128;2022-08-19T14:59:19;12.93;;;9.35;;